sensor_id;sensor_type;location;lat;lon;timestamp;pressure;altitude;pressure_sealevel;temperature;humidity
80934;BME280;70392;51.144;17.050;2023-06-22T00:01:19;100574.30;;;23.71;68.24
80934;BME280;70392;51.144;17.050;2023-06-22T00:03:41;100583.94;;;23.73;68.01
80934;BME280;70392;51.144;17.050;2023-06-22T00:05:58;100576.84;;;23.71;67.94
80934;BME280;70392;51.144;17.050;2023-06-22T00:08:14;100582.46;;;23.71;67.79
80934;BME280;70392;51.144;17.050;2023-06-22T00:10:30;100583.67;;;23.72;67.73
80934;BME280;70392;51.144;17.050;2023-06-22T00:12:46;100595.55;;;23.73;68.29
80934;BME280;70392;51.144;17.050;2023-06-22T00:15:03;100592.62;;;23.73;68.14
80934;BME280;70392;51.144;17.050;2023-06-22T00:17:21;100589.66;;;23.74;68.11
80934;BME280;70392;51.144;17.050;2023-06-22T00:19:43;100591.28;;;23.76;67.85
80934;BME280;70392;51.144;17.050;2023-06-22T00:22:03;100593.31;;;23.73;67.77
80934;BME280;70392;51.144;17.050;2023-06-22T00:24:20;100592.23;;;23.73;68.29
80934;BME280;70392;51.144;17.050;2023-06-22T00:26:39;100593.45;;;23.72;67.61
80934;BME280;70392;51.144;17.050;2023-06-22T00:28:55;100606.01;;;23.69;67.86
80934;BME280;70392;51.144;17.050;2023-06-22T00:31:11;100607.36;;;23.65;68.11
80934;BME280;70392;51.144;17.050;2023-06-22T00:33:28;100608.19;;;23.64;68.05
80934;BME280;70392;51.144;17.050;2023-06-22T00:35:44;100608.97;;;23.60;67.61
80934;BME280;70392;51.144;17.050;2023-06-22T00:38:01;100613.55;;;23.59;68.03
80934;BME280;70392;51.144;17.050;2023-06-22T00:40:21;100617.02;;;23.58;68.33
80934;BME280;70392;51.144;17.050;2023-06-22T00:42:41;100621.42;;;23.58;68.34
80934;BME280;70392;51.144;17.050;2023-06-22T00:44:59;100622.50;;;23.58;68.11
80934;BME280;70392;51.144;17.050;2023-06-22T00:47:17;100624.40;;;23.56;67.93
80934;BME280;70392;51.144;17.050;2023-06-22T00:49:37;100629.48;;;23.54;68.16
80934;BME280;70392;51.144;17.050;2023-06-22T00:51:56;100630.82;;;23.51;67.95
80934;BME280;70392;51.144;17.050;2023-06-22T00:54:24;100636.70;;;23.48;67.61
80934;BME280;70392;51.144;17.050;2023-06-22T00:56:41;100644.07;;;23.45;68.09
80934;BME280;70392;51.144;17.050;2023-06-22T00:59:03;100644.69;;;23.41;68.53
80934;BME280;70392;51.144;17.050;2023-06-22T01:01:23;100640.55;;;23.38;68.29
80934;BME280;70392;51.144;17.050;2023-06-22T01:03:41;100641.78;;;23.36;68.22
80934;BME280;70392;51.144;17.050;2023-06-22T01:06:02;100640.43;;;23.32;68.36
80934;BME280;70392;51.144;17.050;2023-06-22T01:08:39;100636.95;;;23.31;68.49
80934;BME280;70392;51.144;17.050;2023-06-22T01:11:06;100642.95;;;23.29;68.55
80934;BME280;70392;51.144;17.050;2023-06-22T01:16:09;100641.89;;;23.24;68.86
80934;BME280;70392;51.144;17.050;2023-06-22T01:18:32;100648.99;;;23.18;69.21
80934;BME280;70392;51.144;17.050;2023-06-22T01:20:53;100649.13;;;23.14;69.07
80934;BME280;70392;51.144;17.050;2023-06-22T01:25:46;100656.18;;;23.01;69.59
80934;BME280;70392;51.144;17.050;2023-06-22T01:28:32;100653.37;;;22.97;69.81
80934;BME280;70392;51.144;17.050;2023-06-22T01:31:05;100654.46;;;22.98;69.54
80934;BME280;70392;51.144;17.050;2023-06-22T01:33:22;100655.24;;;22.94;69.56
80934;BME280;70392;51.144;17.050;2023-06-22T01:35:41;100654.03;;;22.88;69.54
80934;BME280;70392;51.144;17.050;2023-06-22T01:37:59;100648.82;;;22.81;70.04
80934;BME280;70392;51.144;17.050;2023-06-22T01:40:19;100646.01;;;22.77;69.52
80934;BME280;70392;51.144;17.050;2023-06-22T01:42:37;100647.87;;;22.72;69.22
80934;BME280;70392;51.144;17.050;2023-06-22T01:44:54;100655.04;;;22.68;69.47
80934;BME280;70392;51.144;17.050;2023-06-22T01:47:24;100646.05;;;22.64;69.15
80934;BME280;70392;51.144;17.050;2023-06-22T01:49:41;100654.48;;;22.59;69.18
80934;BME280;70392;51.144;17.050;2023-06-22T01:52:08;100651.41;;;22.55;69.48
80934;BME280;70392;51.144;17.050;2023-06-22T01:54:24;100657.66;;;22.49;69.58
80934;BME280;70392;51.144;17.050;2023-06-22T01:56:40;100653.61;;;22.42;69.99
80934;BME280;70392;51.144;17.050;2023-06-22T02:01:35;100662.40;;;22.27;70.22
80934;BME280;70392;51.144;17.050;2023-06-22T02:04:04;100657.41;;;22.23;70.54
80934;BME280;70392;51.144;17.050;2023-06-22T02:06:27;100657.70;;;22.22;70.44
80934;BME280;70392;51.144;17.050;2023-06-22T02:08:57;100654.48;;;22.20;70.20
80934;BME280;70392;51.144;17.050;2023-06-22T02:11:18;100655.40;;;22.20;69.93
80934;BME280;70392;51.144;17.050;2023-06-22T02:13:58;100657.13;;;22.18;69.91
80934;BME280;70392;51.144;17.050;2023-06-22T02:16:18;100661.38;;;22.13;70.15
80934;BME280;70392;51.144;17.050;2023-06-22T02:18:51;100652.16;;;22.10;69.86
80934;BME280;70392;51.144;17.050;2023-06-22T02:21:08;100648.09;;;22.00;70.11
80934;BME280;70392;51.144;17.050;2023-06-22T02:23:24;100654.56;;;21.93;70.35
80934;BME280;70392;51.144;17.050;2023-06-22T02:25:48;100655.07;;;21.87;71.26
80934;BME280;70392;51.144;17.050;2023-06-22T02:28:04;100656.49;;;21.81;71.22
80934;BME280;70392;51.144;17.050;2023-06-22T02:30:21;100658.36;;;21.76;72.09
80934;BME280;70392;51.144;17.050;2023-06-22T02:32:58;100660.49;;;21.79;72.35
80934;BME280;70392;51.144;17.050;2023-06-22T02:35:15;100659.02;;;21.78;72.07
80934;BME280;70392;51.144;17.050;2023-06-22T02:37:31;100663.94;;;21.76;71.75
80934;BME280;70392;51.144;17.050;2023-06-22T02:39:49;100659.39;;;21.73;72.20
80934;BME280;70392;51.144;17.050;2023-06-22T02:42:08;100658.05;;;21.71;71.92
80934;BME280;70392;51.144;17.050;2023-06-22T02:44:26;100664.16;;;21.68;72.08
80934;BME280;70392;51.144;17.050;2023-06-22T02:46:42;100661.20;;;21.63;71.76
80934;BME280;70392;51.144;17.050;2023-06-22T02:48:58;100655.15;;;21.59;71.51
80934;BME280;70392;51.144;17.050;2023-06-22T02:51:15;100651.14;;;21.56;71.47
80934;BME280;70392;51.144;17.050;2023-06-22T02:53:32;100655.09;;;21.51;71.60
80934;BME280;70392;51.144;17.050;2023-06-22T02:55:49;100653.62;;;21.48;71.72
80934;BME280;70392;51.144;17.050;2023-06-22T02:58:07;100654.79;;;21.45;72.26
80934;BME280;70392;51.144;17.050;2023-06-22T03:00:30;100658.38;;;21.43;72.12
80934;BME280;70392;51.144;17.050;2023-06-22T03:02:57;100652.36;;;21.42;71.39
80934;BME280;70392;51.144;17.050;2023-06-22T03:05:15;100657.81;;;21.39;71.64
80934;BME280;70392;51.144;17.050;2023-06-22T03:07:53;100652.76;;;21.41;71.36
80934;BME280;70392;51.144;17.050;2023-06-22T03:10:11;100653.96;;;21.39;71.18
80934;BME280;70392;51.144;17.050;2023-06-22T03:12:27;100666.87;;;21.37;71.40
80934;BME280;70392;51.144;17.050;2023-06-22T03:14:43;100669.38;;;21.34;71.96
80934;BME280;70392;51.144;17.050;2023-06-22T03:17:04;100666.73;;;21.36;72.85
80934;BME280;70392;51.144;17.050;2023-06-22T03:19:23;100671.02;;;21.41;72.54
80934;BME280;70392;51.144;17.050;2023-06-22T03:21:40;100681.34;;;21.45;72.88
80934;BME280;70392;51.144;17.050;2023-06-22T03:23:56;100680.98;;;21.51;72.52
80934;BME280;70392;51.144;17.050;2023-06-22T03:26:17;100683.83;;;21.56;72.63
80934;BME280;70392;51.144;17.050;2023-06-22T03:28:38;100686.01;;;21.64;73.62
80934;BME280;70392;51.144;17.050;2023-06-22T03:30:54;100676.16;;;21.67;73.52
80934;BME280;70392;51.144;17.050;2023-06-22T03:33:22;100688.88;;;21.74;73.58
80934;BME280;70392;51.144;17.050;2023-06-22T03:35:38;100691.31;;;21.79;72.78
80934;BME280;70392;51.144;17.050;2023-06-22T03:37:54;100698.39;;;21.82;72.37
80934;BME280;70392;51.144;17.050;2023-06-22T03:40:30;100707.39;;;21.88;71.64
80934;BME280;70392;51.144;17.050;2023-06-22T03:42:46;100702.19;;;21.91;71.28
80934;BME280;70392;51.144;17.050;2023-06-22T03:45:03;100705.13;;;21.91;71.08
80934;BME280;70392;51.144;17.050;2023-06-22T03:47:20;100707.80;;;21.92;71.21
80934;BME280;70392;51.144;17.050;2023-06-22T03:49:37;100709.45;;;21.93;71.96
80934;BME280;70392;51.144;17.050;2023-06-22T03:51:53;100711.20;;;21.95;71.47
80934;BME280;70392;51.144;17.050;2023-06-22T03:54:16;100711.21;;;21.98;71.31
80934;BME280;70392;51.144;17.050;2023-06-22T03:56:32;100718.44;;;21.99;71.69
80934;BME280;70392;51.144;17.050;2023-06-22T03:58:48;100717.49;;;22.01;72.22
80934;BME280;70392;51.144;17.050;2023-06-22T04:01:06;100720.06;;;22.02;71.92
80934;BME280;70392;51.144;17.050;2023-06-22T04:03:25;100727.15;;;22.06;71.63
80934;BME280;70392;51.144;17.050;2023-06-22T04:05:41;100730.09;;;22.08;71.36
80934;BME280;70392;51.144;17.050;2023-06-22T04:07:58;100738.78;;;22.11;71.81
80934;BME280;70392;51.144;17.050;2023-06-22T04:10:15;100732.52;;;22.13;71.51
80934;BME280;70392;51.144;17.050;2023-06-22T04:12:43;100733.36;;;22.20;71.13
80934;BME280;70392;51.144;17.050;2023-06-22T04:15:00;100732.44;;;22.24;70.81
80934;BME280;70392;51.144;17.050;2023-06-22T04:17:28;100740.77;;;22.30;70.60
80934;BME280;70392;51.144;17.050;2023-06-22T04:19:44;100741.34;;;22.35;70.70
80934;BME280;70392;51.144;17.050;2023-06-22T04:22:00;100747.73;;;22.36;71.07
80934;BME280;70392;51.144;17.050;2023-06-22T04:24:16;100747.21;;;22.38;70.80
80934;BME280;70392;51.144;17.050;2023-06-22T04:26:36;100745.09;;;22.41;70.56
80934;BME280;70392;51.144;17.050;2023-06-22T04:28:55;100740.30;;;22.43;70.32
80934;BME280;70392;51.144;17.050;2023-06-22T04:31:12;100735.09;;;22.46;70.26
80934;BME280;70392;51.144;17.050;2023-06-22T04:33:31;100748.35;;;22.48;70.51
80934;BME280;70392;51.144;17.050;2023-06-22T04:35:58;100742.62;;;22.55;70.39
80934;BME280;70392;51.144;17.050;2023-06-22T04:38:16;100750.91;;;22.59;70.36
80934;BME280;70392;51.144;17.050;2023-06-22T04:40:44;100750.54;;;22.64;70.01
80934;BME280;70392;51.144;17.050;2023-06-22T04:43:02;100750.16;;;22.68;70.19
80934;BME280;70392;51.144;17.050;2023-06-22T04:45:19;100754.74;;;22.68;70.31
80934;BME280;70392;51.144;17.050;2023-06-22T04:47:39;100753.41;;;22.74;70.07
80934;BME280;70392;51.144;17.050;2023-06-22T04:49:57;100754.10;;;22.80;69.93
80934;BME280;70392;51.144;17.050;2023-06-22T04:52:17;100753.99;;;22.84;70.08
80934;BME280;70392;51.144;17.050;2023-06-22T04:54:40;100754.41;;;22.90;70.16
80934;BME280;70392;51.144;17.050;2023-06-22T04:57:09;100758.99;;;23.00;69.71
80934;BME280;70392;51.144;17.050;2023-06-22T04:59:30;100765.93;;;23.04;69.56
80934;BME280;70392;51.144;17.050;2023-06-22T05:01:46;100774.10;;;23.10;69.58
80934;BME280;70392;51.144;17.050;2023-06-22T05:04:03;100774.39;;;23.15;69.39
80934;BME280;70392;51.144;17.050;2023-06-22T05:06:24;100773.86;;;23.19;69.40
80934;BME280;70392;51.144;17.050;2023-06-22T05:08:44;100778.84;;;23.27;69.00
80934;BME280;70392;51.144;17.050;2023-06-22T05:11:02;100764.12;;;23.33;69.25
80934;BME280;70392;51.144;17.050;2023-06-22T05:13:18;100755.96;;;23.39;68.91
80934;BME280;70392;51.144;17.050;2023-06-22T05:15:40;100762.59;;;23.46;68.79
80934;BME280;70392;51.144;17.050;2023-06-22T05:17:56;100764.86;;;23.54;68.95
80934;BME280;70392;51.144;17.050;2023-06-22T05:20:22;100767.65;;;23.64;68.76
80934;BME280;70392;51.144;17.050;2023-06-22T05:22:40;100767.79;;;23.70;68.76
80934;BME280;70392;51.144;17.050;2023-06-22T05:24:56;100763.38;;;23.76;68.50
80934;BME280;70392;51.144;17.050;2023-06-22T05:27:12;100758.68;;;23.83;68.56
80934;BME280;70392;51.144;17.050;2023-06-22T05:29:28;100762.98;;;23.90;68.54
80934;BME280;70392;51.144;17.050;2023-06-22T05:31:51;100764.84;;;23.97;68.39
80934;BME280;70392;51.144;17.050;2023-06-22T05:34:07;100756.93;;;24.02;68.14
80934;BME280;70392;51.144;17.050;2023-06-22T05:36:26;100747.69;;;24.08;67.81
80934;BME280;70392;51.144;17.050;2023-06-22T05:38:42;100754.09;;;24.16;67.51
80934;BME280;70392;51.144;17.050;2023-06-22T05:40:58;100756.65;;;24.19;67.17
80934;BME280;70392;51.144;17.050;2023-06-22T05:43:14;100755.71;;;24.27;66.75
80934;BME280;70392;51.144;17.050;2023-06-22T05:45:32;100757.30;;;24.31;66.45
80934;BME280;70392;51.144;17.050;2023-06-22T05:47:58;100757.95;;;24.38;66.29
80934;BME280;70392;51.144;17.050;2023-06-22T05:50:14;100760.48;;;24.43;65.79
80934;BME280;70392;51.144;17.050;2023-06-22T05:52:30;100756.05;;;24.50;65.07
80934;BME280;70392;51.144;17.050;2023-06-22T05:54:46;100758.82;;;24.56;64.66
80934;BME280;70392;51.144;17.050;2023-06-22T05:57:05;100764.16;;;24.65;64.28
80934;BME280;70392;51.144;17.050;2023-06-22T05:59:21;100762.65;;;24.69;63.97
80934;BME280;70392;51.144;17.050;2023-06-22T06:01:40;100771.50;;;24.71;63.29
80934;BME280;70392;51.144;17.050;2023-06-22T06:03:56;100768.79;;;24.75;63.12
80934;BME280;70392;51.144;17.050;2023-06-22T06:06:17;100762.50;;;24.78;63.07
80934;BME280;70392;51.144;17.050;2023-06-22T06:08:35;100764.76;;;24.80;63.07
80934;BME280;70392;51.144;17.050;2023-06-22T06:10:52;100768.12;;;24.85;63.19
80934;BME280;70392;51.144;17.050;2023-06-22T06:13:11;100763.11;;;24.96;62.83
80934;BME280;70392;51.144;17.050;2023-06-22T06:15:27;100769.60;;;25.05;62.44
80934;BME280;70392;51.144;17.050;2023-06-22T06:17:50;100771.29;;;25.18;62.18
80934;BME280;70392;51.144;17.050;2023-06-22T06:20:08;100783.35;;;25.41;61.67
80934;BME280;70392;51.144;17.050;2023-06-22T06:22:27;100787.10;;;25.59;60.92
80934;BME280;70392;51.144;17.050;2023-06-22T06:24:43;100782.26;;;25.79;60.60
80934;BME280;70392;51.144;17.050;2023-06-22T06:27:00;100786.26;;;25.97;59.92
80934;BME280;70392;51.144;17.050;2023-06-22T06:29:49;100794.41;;;26.18;59.23
80934;BME280;70392;51.144;17.050;2023-06-22T06:32:08;100798.34;;;26.57;58.47
80934;BME280;70392;51.144;17.050;2023-06-22T06:34:24;100790.38;;;26.70;58.52
80934;BME280;70392;51.144;17.050;2023-06-22T06:36:40;100787.54;;;26.80;58.55
80934;BME280;70392;51.144;17.050;2023-06-22T06:38:59;100790.80;;;26.91;58.11
80934;BME280;70392;51.144;17.050;2023-06-22T06:41:16;100792.72;;;26.98;58.06
80934;BME280;70392;51.144;17.050;2023-06-22T06:43:32;100790.07;;;27.07;57.99
80934;BME280;70392;51.144;17.050;2023-06-22T06:45:48;100792.91;;;27.16;57.62
80934;BME280;70392;51.144;17.050;2023-06-22T06:48:04;100800.87;;;27.25;57.35
80934;BME280;70392;51.144;17.050;2023-06-22T06:50:26;100805.19;;;27.32;56.95
80934;BME280;70392;51.144;17.050;2023-06-22T06:52:42;100799.04;;;27.39;57.11
80934;BME280;70392;51.144;17.050;2023-06-22T06:55:00;100797.17;;;27.46;56.44
80934;BME280;70392;51.144;17.050;2023-06-22T06:57:16;100800.81;;;27.57;56.65
80934;BME280;70392;51.144;17.050;2023-06-22T06:59:32;100807.27;;;27.64;56.19
80934;BME280;70392;51.144;17.050;2023-06-22T07:01:48;100811.17;;;27.73;55.63
80934;BME280;70392;51.144;17.050;2023-06-22T07:04:04;100813.84;;;27.83;55.72
80934;BME280;70392;51.144;17.050;2023-06-22T07:06:20;100812.06;;;27.93;55.42
80934;BME280;70392;51.144;17.050;2023-06-22T07:08:36;100814.38;;;28.05;55.06
80934;BME280;70392;51.144;17.050;2023-06-22T07:10:52;100816.67;;;28.17;53.82
80934;BME280;70392;51.144;17.050;2023-06-22T07:13:08;100821.19;;;28.27;53.83
80934;BME280;70392;51.144;17.050;2023-06-22T07:15:25;100825.38;;;28.41;53.70
80934;BME280;70392;51.144;17.050;2023-06-22T07:17:42;100829.12;;;28.58;53.86
80934;BME280;70392;51.144;17.050;2023-06-22T07:19:59;100825.31;;;28.68;53.19
80934;BME280;70392;51.144;17.050;2023-06-22T07:22:22;100827.59;;;28.67;53.44
80934;BME280;70392;51.144;17.050;2023-06-22T07:24:37;100830.20;;;28.64;53.84
80934;BME280;70392;51.144;17.050;2023-06-22T07:26:53;100832.58;;;28.60;53.88
80934;BME280;70392;51.144;17.050;2023-06-22T07:29:10;100837.91;;;28.57;54.08
80934;BME280;70392;51.144;17.050;2023-06-22T07:31:26;100839.38;;;28.57;53.69
80934;BME280;70392;51.144;17.050;2023-06-22T07:33:42;100833.43;;;28.52;53.82
80934;BME280;70392;51.144;17.050;2023-06-22T07:35:58;100831.38;;;28.39;53.44
80934;BME280;70392;51.144;17.050;2023-06-22T07:38:15;100822.85;;;28.27;53.69
80934;BME280;70392;51.144;17.050;2023-06-22T07:40:33;100821.68;;;28.17;52.77
80934;BME280;70392;51.144;17.050;2023-06-22T07:42:51;100816.09;;;28.04;53.12
80934;BME280;70392;51.144;17.050;2023-06-22T07:45:08;100822.19;;;27.92;53.50
80934;BME280;70392;51.144;17.050;2023-06-22T07:47:28;100824.75;;;27.86;53.75
80934;BME280;70392;51.144;17.050;2023-06-22T07:49:46;100825.95;;;27.86;53.21
80934;BME280;70392;51.144;17.050;2023-06-22T07:52:03;100824.53;;;27.90;53.40
80934;BME280;70392;51.144;17.050;2023-06-22T07:54:20;100825.62;;;27.95;53.36
80934;BME280;70392;51.144;17.050;2023-06-22T07:56:37;100830.65;;;28.00;53.58
80934;BME280;70392;51.144;17.050;2023-06-22T07:58:58;100824.89;;;28.08;53.71
80934;BME280;70392;51.144;17.050;2023-06-22T08:01:15;100820.88;;;28.16;53.17
80934;BME280;70392;51.144;17.050;2023-06-22T08:03:33;100812.23;;;28.18;52.72
80934;BME280;70392;51.144;17.050;2023-06-22T08:05:49;100806.80;;;28.19;52.66
80934;BME280;70392;51.144;17.050;2023-06-22T08:08:05;100806.42;;;28.26;52.95
80934;BME280;70392;51.144;17.050;2023-06-22T08:10:22;100808.46;;;28.25;53.19
80934;BME280;70392;51.144;17.050;2023-06-22T08:12:42;100808.02;;;28.25;52.82
80934;BME280;70392;51.144;17.050;2023-06-22T08:14:58;100805.22;;;28.25;51.97
80934;BME280;70392;51.144;17.050;2023-06-22T08:17:14;100802.72;;;28.29;52.89
80934;BME280;70392;51.144;17.050;2023-06-22T08:19:30;100804.89;;;28.39;52.88
80934;BME280;70392;51.144;17.050;2023-06-22T08:21:46;100806.28;;;28.58;53.10
80934;BME280;70392;51.144;17.050;2023-06-22T08:24:05;100804.56;;;28.78;52.62
80934;BME280;70392;51.144;17.050;2023-06-22T08:26:24;100805.36;;;28.93;52.34
80934;BME280;70392;51.144;17.050;2023-06-22T08:28:40;100804.61;;;28.97;51.18
80934;BME280;70392;51.144;17.050;2023-06-22T08:31:08;100801.45;;;29.04;51.81
80934;BME280;70392;51.144;17.050;2023-06-22T08:33:28;100785.16;;;29.15;51.76
80934;BME280;70392;51.144;17.050;2023-06-22T08:35:46;100778.65;;;29.30;51.57
80934;BME280;70392;51.144;17.050;2023-06-22T08:38:02;100772.71;;;29.36;51.26
80934;BME280;70392;51.144;17.050;2023-06-22T08:40:19;100772.14;;;29.47;50.93
80934;BME280;70392;51.144;17.050;2023-06-22T08:42:40;100776.95;;;29.61;50.72
80934;BME280;70392;51.144;17.050;2023-06-22T08:44:57;100775.18;;;29.64;50.40
80934;BME280;70392;51.144;17.050;2023-06-22T08:47:14;100770.70;;;29.51;49.67
80934;BME280;70392;51.144;17.050;2023-06-22T08:49:32;100768.49;;;29.49;49.77
80934;BME280;70392;51.144;17.050;2023-06-22T08:52:23;100766.91;;;29.49;50.05
80934;BME280;70392;51.144;17.050;2023-06-22T08:54:44;100766.16;;;29.88;49.20
80934;BME280;70392;51.144;17.050;2023-06-22T08:57:04;100762.65;;;30.04;49.21
80934;BME280;70392;51.144;17.050;2023-06-22T08:59:40;100770.80;;;30.17;48.81
80934;BME280;70392;51.144;17.050;2023-06-22T09:01:56;100765.48;;;30.24;49.12
80934;BME280;70392;51.144;17.050;2023-06-22T09:04:13;100777.30;;;30.36;49.71
80934;BME280;70392;51.144;17.050;2023-06-22T09:06:31;100776.84;;;30.50;47.36
80934;BME280;70392;51.144;17.050;2023-06-22T09:09:15;100779.48;;;30.61;47.63
80934;BME280;70392;51.144;17.050;2023-06-22T09:11:32;100780.85;;;30.75;47.49
80934;BME280;70392;51.144;17.050;2023-06-22T09:13:50;100781.31;;;30.84;47.75
80934;BME280;70392;51.144;17.050;2023-06-22T09:16:27;100774.02;;;30.92;45.44
80934;BME280;70392;51.144;17.050;2023-06-22T09:18:47;100771.77;;;30.88;44.85
80934;BME280;70392;51.144;17.050;2023-06-22T09:21:03;100774.98;;;30.73;46.69
80934;BME280;70392;51.144;17.050;2023-06-22T09:23:38;100768.63;;;30.59;45.30
80934;BME280;70392;51.144;17.050;2023-06-22T09:25:55;100768.57;;;30.42;45.62
80934;BME280;70392;51.144;17.050;2023-06-22T09:28:11;100772.07;;;30.31;46.60
80934;BME280;70392;51.144;17.050;2023-06-22T09:30:34;100771.24;;;30.37;46.96
80934;BME280;70392;51.144;17.050;2023-06-22T09:32:50;100768.38;;;30.38;46.40
80934;BME280;70392;51.144;17.050;2023-06-22T09:35:08;100774.84;;;30.35;46.99
80934;BME280;70392;51.144;17.050;2023-06-22T09:37:27;100776.63;;;30.52;46.44
80934;BME280;70392;51.144;17.050;2023-06-22T09:39:43;100775.52;;;30.57;45.26
80934;BME280;70392;51.144;17.050;2023-06-22T09:42:00;100773.12;;;30.74;45.05
80934;BME280;70392;51.144;17.050;2023-06-22T09:44:16;100769.26;;;30.91;44.96
80934;BME280;70392;51.144;17.050;2023-06-22T09:46:32;100766.09;;;31.05;44.48
80934;BME280;70392;51.144;17.050;2023-06-22T09:48:49;100761.30;;;31.26;43.99
80934;BME280;70392;51.144;17.050;2023-06-22T09:51:04;100766.06;;;31.50;43.99
80934;BME280;70392;51.144;17.050;2023-06-22T09:53:21;100759.31;;;31.82;44.33
80934;BME280;70392;51.144;17.050;2023-06-22T09:55:37;100757.25;;;32.12;42.75
80934;BME280;70392;51.144;17.050;2023-06-22T09:57:54;100759.05;;;32.20;42.21
80934;BME280;70392;51.144;17.050;2023-06-22T10:00:16;100759.52;;;32.48;42.07
80934;BME280;70392;51.144;17.050;2023-06-22T10:02:42;100755.99;;;32.82;42.28
80934;BME280;70392;51.144;17.050;2023-06-22T10:04:58;100764.80;;;33.15;41.85
80934;BME280;70392;51.144;17.050;2023-06-22T10:07:15;100766.49;;;33.41;41.95
80934;BME280;70392;51.144;17.050;2023-06-22T10:09:31;100763.60;;;33.54;41.07
80934;BME280;70392;51.144;17.050;2023-06-22T10:11:54;100764.42;;;33.88;39.22
80934;BME280;70392;51.144;17.050;2023-06-22T10:14:10;100764.10;;;34.20;39.16
80934;BME280;70392;51.144;17.050;2023-06-22T10:16:31;100760.52;;;34.58;37.63
80934;BME280;70392;51.144;17.050;2023-06-22T10:18:48;100758.60;;;35.02;35.61
80934;BME280;70392;51.144;17.050;2023-06-22T10:21:09;100751.84;;;35.29;34.15
80934;BME280;70392;51.144;17.050;2023-06-22T10:23:27;100747.18;;;35.38;33.57
80934;BME280;70392;51.144;17.050;2023-06-22T10:25:43;100741.12;;;35.11;34.72
80934;BME280;70392;51.144;17.050;2023-06-22T10:27:59;100734.31;;;36.43;35.34
80934;BME280;70392;51.144;17.050;2023-06-22T10:30:15;100736.92;;;37.38;31.88
80934;BME280;70392;51.144;17.050;2023-06-22T10:32:31;100729.09;;;38.52;31.85
80934;BME280;70392;51.144;17.050;2023-06-22T10:34:55;100722.28;;;39.43;29.61
80934;BME280;70392;51.144;17.050;2023-06-22T10:37:11;100731.70;;;40.21;29.80
80934;BME280;70392;51.144;17.050;2023-06-22T10:39:27;100724.08;;;40.79;28.15
80934;BME280;70392;51.144;17.050;2023-06-22T10:41:43;100727.77;;;41.27;27.43
80934;BME280;70392;51.144;17.050;2023-06-22T10:44:00;100722.25;;;41.42;26.30
80934;BME280;70392;51.144;17.050;2023-06-22T10:46:17;100723.06;;;41.63;25.40
80934;BME280;70392;51.144;17.050;2023-06-22T10:48:34;100719.09;;;41.75;25.18
80934;BME280;70392;51.144;17.050;2023-06-22T10:50:50;100716.81;;;41.65;24.20
80934;BME280;70392;51.144;17.050;2023-06-22T10:53:13;100714.20;;;41.57;25.18
80934;BME280;70392;51.144;17.050;2023-06-22T10:55:29;100719.11;;;41.51;24.90
80934;BME280;70392;51.144;17.050;2023-06-22T10:57:48;100713.09;;;41.41;24.10
80934;BME280;70392;51.144;17.050;2023-06-22T11:00:07;100709.75;;;41.29;24.82
80934;BME280;70392;51.144;17.050;2023-06-22T11:02:25;100703.00;;;41.09;25.32
80934;BME280;70392;51.144;17.050;2023-06-22T11:04:41;100701.61;;;40.88;23.83
80934;BME280;70392;51.144;17.050;2023-06-22T11:06:57;100685.93;;;40.64;24.36
80934;BME280;70392;51.144;17.050;2023-06-22T11:09:21;100693.09;;;40.02;24.59
80934;BME280;70392;51.144;17.050;2023-06-22T11:11:41;100700.31;;;39.82;25.34
80934;BME280;70392;51.144;17.050;2023-06-22T11:13:57;100692.20;;;39.49;25.31
80934;BME280;70392;51.144;17.050;2023-06-22T11:16:13;100687.38;;;39.17;26.27
80934;BME280;70392;51.144;17.050;2023-06-22T11:18:31;100692.88;;;39.06;26.35
80934;BME280;70392;51.144;17.050;2023-06-22T11:20:49;100695.88;;;38.90;26.14
80934;BME280;70392;51.144;17.050;2023-06-22T11:23:11;100688.07;;;38.81;26.46
80934;BME280;70392;51.144;17.050;2023-06-22T11:25:28;100686.88;;;38.68;26.26
80934;BME280;70392;51.144;17.050;2023-06-22T11:27:52;100689.58;;;38.69;27.36
80934;BME280;70392;51.144;17.050;2023-06-22T11:30:09;100683.98;;;38.65;26.24
80934;BME280;70392;51.144;17.050;2023-06-22T11:32:30;100679.88;;;38.37;25.55
80934;BME280;70392;51.144;17.050;2023-06-22T11:34:51;100672.01;;;38.10;25.27
80934;BME280;70392;51.144;17.050;2023-06-22T11:37:07;100682.76;;;38.01;26.07
80934;BME280;70392;51.144;17.050;2023-06-22T11:39:28;100682.72;;;38.11;27.11
80934;BME280;70392;51.144;17.050;2023-06-22T11:42:05;100675.80;;;38.29;27.38
80934;BME280;70392;51.144;17.050;2023-06-22T11:44:21;100668.95;;;38.33;26.50
80934;BME280;70392;51.144;17.050;2023-06-22T11:46:39;100666.46;;;38.25;26.48
80934;BME280;70392;51.144;17.050;2023-06-22T11:48:55;100669.50;;;38.33;26.86
80934;BME280;70392;51.144;17.050;2023-06-22T11:51:21;100668.04;;;38.37;26.92
80934;BME280;70392;51.144;17.050;2023-06-22T11:53:36;100660.59;;;38.42;26.01
80934;BME280;70392;51.144;17.050;2023-06-22T11:55:55;100661.70;;;38.42;26.64
80934;BME280;70392;51.144;17.050;2023-06-22T11:58:11;100663.46;;;38.50;27.27
80934;BME280;70392;51.144;17.050;2023-06-22T12:00:31;100660.06;;;38.67;27.29
80934;BME280;70392;51.144;17.050;2023-06-22T12:02:46;100660.93;;;38.78;26.40
80934;BME280;70392;51.144;17.050;2023-06-22T12:05:05;100650.46;;;38.82;26.88
80934;BME280;70392;51.144;17.050;2023-06-22T12:07:21;100650.11;;;38.81;27.26